createdAt,value
2019-02-09T00:02:36.115Z,17.03
2019-02-09T00:07:40.142Z,18.63
2019-02-09T00:12:44.139Z,19.93
2019-02-09T00:17:48.134Z,15.07
2019-02-09T00:22:52.195Z,13.17
2019-02-09T00:27:56.206Z,12.23
2019-02-09T00:33:00.247Z,16.03
2019-02-09T00:38:04.266Z,14.77
2019-02-09T00:43:08.263Z,9.47
2019-02-09T00:48:12.265Z,15.03
2019-02-09T00:53:16.273Z,14.33
2019-02-09T00:58:20.319Z,14.90
2019-02-09T01:03:24.323Z,11.47
2019-02-09T01:08:28.306Z,13.13
2019-02-09T01:13:32.310Z,12.07
2019-02-09T01:18:36.303Z,14.20
2019-02-09T01:23:40.291Z,12.20
2019-02-09T01:28:44.294Z,15.10
2019-02-09T01:33:48.292Z,11.23
2019-02-09T01:38:52.288Z,10.80
2019-02-09T01:43:56.270Z,12.77
2019-02-09T01:49:00.283Z,15.30
2019-02-09T01:54:04.321Z,13.10
2019-02-09T01:59:08.376Z,13.30
2019-02-09T02:04:12.375Z,10.83
2019-02-09T02:09:16.358Z,14.60
2019-02-09T02:14:20.335Z,12.50
2019-02-09T02:19:24.325Z,11.30
2019-02-09T02:24:28.331Z,17.67
2019-02-09T02:29:32.323Z,14.20
2019-02-09T02:34:36.350Z,11.10
2019-02-09T02:39:40.327Z,11.80
2019-02-09T02:44:44.349Z,12.83
2019-02-09T02:49:48.349Z,14.83
2019-02-09T02:54:52.428Z,13.00
2019-02-09T02:59:56.427Z,15.63
2019-02-09T03:05:00.429Z,10.63
2019-02-09T03:10:05.197Z,10.43
2019-02-09T03:15:12.497Z,14.20
2019-02-09T03:20:17.602Z,9.73
2019-02-09T03:25:26.600Z,10.53
2019-02-09T03:30:30.622Z,20.37
2019-02-09T03:35:34.600Z,10.70
2019-02-09T03:40:38.613Z,9.63
2019-02-09T03:45:42.592Z,9.10
2019-02-09T03:50:46.578Z,10.00
2019-02-09T03:55:50.589Z,6.30
2019-02-09T04:00:55.812Z,9.20
2019-02-09T04:06:00.031Z,7.23
2019-02-09T04:11:04.019Z,7.87
2019-02-09T04:16:07.999Z,9.07
2019-02-09T04:21:12.008Z,6.10
2019-02-09T04:26:15.983Z,8.17
2019-02-09T04:31:19.993Z,5.27
2019-02-09T04:36:23.951Z,4.47
2019-02-09T04:41:27.922Z,8.17
2019-02-09T04:46:31.939Z,11.30
2019-02-09T04:51:35.920Z,5.93
2019-02-09T04:56:39.929Z,5.23
2019-02-09T05:01:43.942Z,6.13
2019-02-09T05:06:47.919Z,4.27
2019-02-09T05:11:51.930Z,8.03
2019-02-09T05:16:55.917Z,3.00
2019-02-09T05:21:59.892Z,4.50
2019-02-09T05:27:04.074Z,4.43
2019-02-09T05:32:08.218Z,5.13
2019-02-09T05:37:12.199Z,6.60
2019-02-09T05:42:16.173Z,4.23
2019-02-09T05:47:20.163Z,5.77
2019-02-09T05:52:24.174Z,6.13
2019-02-09T05:57:28.150Z,4.50
2019-02-09T06:02:32.146Z,5.93
2019-02-09T06:07:36.119Z,4.77
2019-02-09T06:12:40.096Z,6.10
2019-02-09T06:17:44.105Z,8.17
2019-02-09T06:22:48.080Z,7.00
2019-02-09T06:27:52.065Z,7.70
2019-02-09T06:32:56.038Z,4.87
2019-02-09T06:38:00.050Z,6.70
2019-02-09T06:43:04.028Z,7.60
2019-02-09T06:48:22.272Z,7.50
2019-02-09T06:53:26.250Z,6.93
2019-02-09T06:58:30.233Z,6.57
2019-02-09T07:03:34.234Z,5.33
2019-02-09T07:08:38.220Z,5.80
2019-02-09T07:13:42.200Z,7.63
2019-02-09T07:18:46.182Z,7.37
2019-02-09T07:23:50.179Z,10.33
2019-02-09T07:28:54.180Z,7.40
2019-02-09T07:33:58.162Z,7.43
2019-02-09T07:39:04.736Z,11.40
2019-02-09T07:44:08.746Z,7.90
2019-02-09T07:49:12.757Z,8.43
2019-02-09T07:54:16.745Z,7.27
2019-02-09T07:59:20.732Z,5.50
2019-02-09T08:04:24.712Z,8.07
2019-02-09T08:09:28.720Z,10.13
2019-02-09T08:14:32.712Z,8.73
2019-02-09T08:19:36.714Z,6.73
2019-02-09T08:24:40.711Z,11.20
2019-02-09T08:29:44.690Z,8.10
2019-02-09T08:34:48.696Z,8.97
2019-02-09T08:39:52.703Z,8.23
2019-02-09T08:44:56.747Z,4.30
2019-02-09T08:50:00.753Z,10.27
2019-02-09T08:55:05.227Z,8.90
2019-02-09T09:00:10.983Z,9.67
2019-02-09T09:05:15.017Z,8.43
2019-02-09T09:10:20.181Z,9.57
2019-02-09T09:15:29.833Z,8.40
2019-02-09T09:20:35.498Z,5.97
2019-02-09T09:25:39.488Z,10.50
2019-02-09T09:30:43.585Z,6.37
2019-02-09T09:35:47.589Z,4.90
2019-02-09T09:40:51.613Z,4.87
2019-02-09T09:45:55.604Z,4.50
2019-02-09T09:50:59.603Z,5.37
2019-02-09T09:56:03.603Z,5.03
2019-02-09T10:01:07.741Z,6.63
2019-02-09T10:06:11.725Z,9.13
2019-02-09T10:11:15.733Z,6.73
2019-02-09T10:16:19.742Z,6.70
2019-02-09T10:21:23.756Z,4.87
2019-02-09T10:26:27.793Z,3.00
2019-02-09T10:31:31.899Z,7.00
2019-02-09T10:36:35.930Z,5.13
2019-02-09T10:41:39.932Z,10.73
2019-02-09T10:56:51.199Z,7.03
2019-02-09T11:01:55.199Z,4.75
2019-02-09T11:06:59.230Z,6.80
2019-02-09T11:12:03.245Z,6.27
2019-02-09T11:17:07.265Z,5.78
2019-02-09T11:22:11.288Z,6.40
2019-02-09T11:27:18.248Z,4.33
2019-02-09T11:32:22.300Z,4.27
2019-02-09T11:37:26.311Z,4.25
2019-02-09T11:42:30.370Z,5.30
2019-02-09T11:47:34.383Z,7.00
2019-02-09T11:52:38.501Z,7.60
2019-02-09T11:57:42.579Z,3.30
2019-02-09T12:02:47.054Z,4.65
2019-02-09T12:07:51.191Z,4.78
2019-02-09T12:12:55.202Z,5.17
2019-02-09T12:17:59.194Z,3.67
2019-02-09T12:23:03.208Z,6.17
2019-02-09T12:28:07.978Z,4.65
2019-02-09T12:33:12.008Z,6.70
2019-02-09T12:38:16.014Z,5.97
2019-02-09T12:43:20.070Z,3.87
2019-02-09T12:48:24.086Z,4.00
2019-02-09T12:53:28.092Z,8.10
2019-02-09T12:58:32.459Z,2.12
2019-02-09T13:03:36.653Z,2.90
2019-02-09T13:08:40.645Z,4.13
2019-02-09T13:13:44.653Z,3.50
2019-02-09T13:18:48.733Z,1.47
2019-02-09T13:23:53.688Z,2.47
2019-02-09T13:28:57.695Z,8.73
2019-02-09T13:34:01.790Z,5.30
2019-02-09T13:39:08.149Z,2.63
2019-02-09T13:44:12.162Z,5.80
2019-02-09T13:54:21.985Z,7.60
2019-02-09T13:59:26.050Z,4.70
2019-02-09T14:04:30.105Z,3.90
2019-02-09T14:09:34.156Z,4.77
2019-02-09T14:14:38.302Z,6.83
2019-02-09T14:19:42.408Z,4.00
2019-02-09T14:24:46.530Z,7.00
2019-02-09T14:29:52.661Z,5.07
2019-02-09T14:34:57.032Z,17.47
2019-02-09T14:40:03.342Z,5.27
2019-02-09T14:45:10.385Z,2.03
2019-02-09T14:50:16.131Z,5.75
2019-02-09T14:55:23.238Z,3.40
2019-02-09T15:00:35.375Z,7.42
2019-02-09T15:05:40.583Z,5.90
2019-02-09T15:10:44.656Z,6.97
2019-02-09T15:16:03.243Z,9.40
2019-02-09T15:21:07.797Z,9.77
2019-02-09T15:26:14.136Z,6.23
2019-02-09T15:31:23.254Z,4.93
2019-02-09T15:36:27.717Z,7.87
2019-02-09T15:41:33.140Z,6.83
2019-02-09T15:46:41.920Z,8.20
2019-02-09T15:51:47.427Z,8.33
2019-02-09T15:56:54.730Z,5.47
2019-02-09T16:02:02.379Z,9.77
2019-02-09T16:07:09.205Z,8.93
2019-02-09T16:12:14.931Z,11.97
2019-02-09T16:17:25.785Z,7.07
2019-02-09T16:22:31.618Z,8.20
2019-02-09T16:27:35.679Z,2.60
2019-02-09T16:32:41.312Z,8.53
2019-02-09T16:37:45.766Z,7.93
2019-02-09T16:42:50.492Z,9.83
2019-02-09T16:47:56.122Z,10.50
2019-02-09T16:53:00.142Z,11.07
2019-02-09T16:58:15.647Z,13.90
2019-02-09T17:03:19.841Z,15.77
2019-02-09T17:08:28.470Z,11.00
2019-02-09T17:13:32.544Z,7.83
2019-02-09T17:18:38.030Z,12.30
2019-02-09T17:23:46.745Z,12.60
2019-02-09T17:28:54.439Z,11.53
2019-02-09T17:34:03.226Z,15.77
2019-02-09T17:39:08.948Z,12.23
2019-02-09T17:44:16.545Z,17.77
2019-02-09T17:49:22.852Z,13.23
2019-02-09T17:54:30.179Z,11.63
2019-02-09T17:59:37.135Z,8.03
2019-02-09T18:04:48.472Z,6.83
2019-02-09T18:09:51.011Z,4.67
2019-02-09T18:15:10.924Z,9.87
2019-02-09T18:20:17.258Z,7.17
2019-02-09T18:25:27.814Z,8.00
2019-02-09T18:30:32.663Z,15.27
2019-02-09T18:35:36.770Z,7.77
2019-02-09T18:40:44.667Z,10.67
2019-02-09T18:45:50.539Z,11.90
2019-02-09T18:50:58.956Z,10.30
2019-02-09T18:56:03.484Z,13.63
2019-02-09T19:01:07.546Z,11.03
2019-02-09T19:06:11.672Z,16.53
2019-02-09T19:11:15.720Z,17.50
2019-02-09T19:16:19.841Z,11.27
2019-02-09T19:21:26.649Z,12.63
2019-02-09T19:26:30.786Z,15.80
2019-02-09T19:31:35.830Z,10.40
2019-02-09T19:36:40.999Z,11.40
2019-02-09T19:41:56.516Z,9.87
2019-02-09T19:47:01.781Z,11.00
2019-02-09T19:52:09.191Z,19.43
2019-02-09T19:57:13.473Z,9.60
2019-02-09T20:02:21.682Z,13.60
2019-02-09T20:07:31.041Z,12.43
2019-02-09T20:12:39.373Z,13.67
2019-02-09T20:17:43.792Z,8.77
2019-02-09T20:22:48.730Z,9.90
2019-02-09T20:27:57.114Z,8.43
2019-02-09T20:33:02.699Z,9.60
2019-02-09T20:38:11.341Z,8.43
2019-02-09T20:43:17.531Z,10.60
2019-02-09T20:48:23.519Z,5.60
2019-02-09T20:53:28.653Z,11.27
2019-02-09T20:58:33.975Z,11.90
2019-02-09T21:03:43.747Z,9.47
2019-02-09T21:08:48.439Z,10.53
2019-02-09T21:13:54.138Z,10.97
2019-02-09T21:18:58.197Z,14.00
2019-02-09T21:24:03.502Z,8.17
2019-02-09T21:29:07.972Z,7.87
2019-02-09T21:34:12.474Z,10.60
2019-02-09T21:39:16.625Z,9.97
2019-02-09T21:44:24.693Z,8.60
2019-02-09T21:49:31.050Z,12.33
2019-02-09T21:54:35.566Z,11.67
2019-02-09T21:59:39.840Z,14.20
2019-02-09T22:04:46.445Z,14.93
2019-02-09T22:09:52.522Z,10.43
2019-02-09T22:14:59.497Z,14.20
2019-02-09T22:20:05.170Z,14.30
2019-02-09T22:25:11.972Z,13.37
2019-02-09T22:30:18.383Z,16.73
2019-02-09T22:35:22.454Z,10.77
2019-02-09T22:40:28.729Z,12.47
2019-02-09T22:45:32.822Z,12.47
2019-02-09T22:50:39.493Z,16.00
2019-02-09T22:55:44.463Z,13.43
2019-02-09T23:00:59.421Z,13.50
2019-02-09T23:06:31.925Z,16.13
2019-02-09T23:11:35.995Z,12.77
2019-02-09T23:16:40.021Z,15.93
2019-02-09T23:21:44.054Z,10.40
2019-02-09T23:26:48.074Z,17.93
2019-02-09T23:31:52.091Z,16.43
2019-02-09T23:36:56.329Z,13.37
2019-02-09T23:42:00.388Z,12.43
2019-02-09T23:47:04.812Z,15.70
2019-02-09T23:52:08.884Z,11.30
2019-02-09T23:57:12.909Z,16.43
